Terminal Aerodrome Forecast
Issued by NWS

Home | Current Version | Previous Version | Text Only | Print | Product List | Glossary On
Versions: 1 2 3 4 5 6 7 8 9 10 11 12 13 14 15
000
FTUS45 KFGZ 301227 RRA
TAFPRC
TAF
KPRC 301227Z 3012/3112 17007KT P6SM SKC
     FM301800 14010KT P6SM SCT120
     FM310200 21006KT P6SM FEW120=

USA.gov is the U.S. government's official web portal to all federal, state and local government web resources and services.